
Distance (Route):
Temperature : 0.8°C
Humidity : 0%
Pressure : 0hPa| Receiver | Frames | First received | Last received |
|---|---|---|---|
| ARGUS2 | 387 | 2026-09-03 11:24:46 | 2026-09-03 14:00:53 |
| Receiver | Date | Latitude | Longitude | Direction | Speed | Altitude | Climb | Temperature | Humidity | Pressure | Voltage | Killtimer | Uptime | BKT | XDATA |
|---|---|---|---|---|---|---|---|---|---|---|---|---|---|---|---|
| ARGUS2 | 2026-09-03 14:00:53 | 27.86995 | -83.35513 | 293° | 20km/h | 4604m | -6.0m/s | 0.8°C | 0% | 0hPa | 0V | 00:00:00 | 00:00:00 | 00:00:00 | |
| ARGUS2 | 2026-09-03 14:00:32 | 27.86908 | -83.35383 | 317° | 31km/h | 4728m | -6.2m/s | 0.2°C | 0% | 0hPa | 0V | 00:00:00 | 00:00:00 | 00:00:00 | |
| ARGUS2 | 2026-09-03 14:00:05 | 27.86801 | -83.35217 | 291° | 26km/h | 4894m | -6.2m/s | -0.5°C | 0% | 0hPa | 0V | 00:00:00 | 00:00:00 | 00:00:00 | |
| ARGUS2 | 2026-09-03 13:55:34 | 27.86355 | -83.32720 | 277° | 27km/h | 6619m | -5.9m/s | -10.1°C | 0% | 0hPa | 0V | 00:00:00 | 00:00:00 | 00:00:00 | |
| ARGUS2 | 2026-09-03 13:55:11 | 27.86306 | -83.32535 | 299° | 22km/h | 6756m | -6.2m/s | -9.9°C | 0% | 0hPa | 0V | 00:00:00 | 00:00:00 | 00:00:00 | |
| ARGUS2 | 2026-09-03 13:54:50 | 27.86252 | -83.32378 | 305° | 26km/h | 6888m | -6.2m/s | -11.1°C | 0% | 0hPa | 0V | 00:00:00 | 00:00:00 | 00:00:00 | |
| ARGUS2 | 2026-09-03 13:53:27 | 27.85987 | -83.31725 | 303° | 38km/h | 7431m | -6.5m/s | -14.1°C | 0% | 0hPa | 0V | 00:00:00 | 00:00:00 | 00:00:00 | |
| ARGUS2 | 2026-09-03 13:53:06 | 27.85892 | -83.31570 | 304° | 35km/h | 7574m | -6.5m/s | -15.3°C | 0% | 0hPa | 0V | 00:00:00 | 00:00:00 | 00:00:00 | |
| ARGUS2 | 2026-09-03 13:52:42 | 27.85766 | -83.31400 | 312° | 37km/h | 7748m | -7.0m/s | -16.5°C | 0% | 0hPa | 0V | 00:00:00 | 00:00:00 | 00:00:00 | |
| ARGUS2 | 2026-09-03 13:52:18 | 27.85619 | -83.31223 | 306° | 37km/h | 7911m | -7.1m/s | -17.2°C | 0% | 0hPa | 0V | 00:00:00 | 00:00:00 | 00:00:00 | |
| ARGUS2 | 2026-09-03 13:51:58 | 27.85521 | -83.31061 | 310° | 31km/h | 8053m | -7.2m/s | -17.6°C | 0% | 0hPa | 0V | 00:00:00 | 00:00:00 | 00:00:00 | |
| ARGUS2 | 2026-09-03 13:51:38 | 27.85425 | -83.30897 | 308° | 33km/h | 8204m | -7.4m/s | -18.7°C | 0% | 0hPa | 0V | 00:00:00 | 00:00:00 | 00:00:00 | |
| ARGUS2 | 2026-09-03 13:51:17 | 27.85341 | -83.30730 | 298° | 31km/h | 8353m | -7.5m/s | -19.9°C | 0% | 0hPa | 0V | 00:00:00 | 00:00:00 | 00:00:00 | |
| ARGUS2 | 2026-09-03 13:50:56 | 27.85276 | -83.30540 | 294° | 31km/h | 8512m | -7.7m/s | -21.0°C | 0% | 0hPa | 0V | 00:00:00 | 00:00:00 | 00:00:00 | |
| ARGUS2 | 2026-09-03 13:50:36 | 27.85238 | -83.30376 | 280° | 24km/h | 8668m | -7.9m/s | -21.9°C | 0% | 0hPa | 0V | 00:00:00 | 00:00:00 | 00:00:00 | |
| ARGUS2 | 2026-09-03 13:50:16 | 27.85216 | -83.30215 | 273° | 29km/h | 8832m | -8.0m/s | -23.0°C | 0% | 0hPa | 0V | 00:00:00 | 00:00:00 | 00:00:00 | |
| ARGUS2 | 2026-09-03 13:49:55 | 27.85201 | -83.30049 | 278° | 26km/h | 8990m | -8.0m/s | -24.0°C | 0% | 0hPa | 0V | 00:00:00 | 00:00:00 | 00:00:00 | |
| ARGUS2 | 2026-09-03 13:49:35 | 27.85190 | -83.29882 | 271° | 29km/h | 9155m | -7.9m/s | -25.4°C | 0% | 0hPa | 0V | 00:00:00 | 00:00:00 | 00:00:00 | |
| ARGUS2 | 2026-09-03 13:49:14 | 27.85177 | -83.29688 | 271° | 35km/h | 9313m | -7.9m/s | -26.6°C | 0% | 0hPa | 0V | 00:00:00 | 00:00:00 | 00:00:00 | |
| ARGUS2 | 2026-09-03 13:48:54 | 27.85173 | -83.29444 | 269° | 44km/h | 9476m | -7.8m/s | -27.9°C | 0% | 0hPa | 0V | 00:00:00 | 00:00:00 | 00:00:00 | |
| ARGUS2 | 2026-09-03 13:48:33 | 27.85158 | -83.29188 | 277° | 46km/h | 9641m | -8.0m/s | -29.3°C | 0% | 0hPa | 0V | 00:00:00 | 00:00:00 | 00:00:00 | |
| ARGUS2 | 2026-09-03 13:48:12 | 27.85131 | -83.28950 | 277° | 42km/h | 9802m | -7.9m/s | -30.7°C | 0% | 0hPa | 0V | 00:00:00 | 00:00:00 | 00:00:00 | |
| ARGUS2 | 2026-09-03 13:47:51 | 27.85099 | -83.28698 | 278° | 44km/h | 9970m | -7.9m/s | -31.9°C | 0% | 0hPa | 0V | 00:00:00 | 00:00:00 | 00:00:00 | |
| ARGUS2 | 2026-09-03 13:47:31 | 27.85071 | -83.28464 | 281° | 42km/h | 10130m | -7.9m/s | -33.1°C | 0% | 0hPa | 0V | 00:00:00 | 00:00:00 | 00:00:00 | |
| ARGUS2 | 2026-09-03 13:46:50 | 27.84975 | -83.28009 | 291° | 42km/h | 10458m | -8.1m/s | -35.6°C | 0% | 0hPa | 0V | 00:00:00 | 00:00:00 | 00:00:00 | |
| ARGUS2 | 2026-09-03 13:46:29 | 27.84880 | -83.27758 | 293° | 47km/h | 10635m | -8.3m/s | -36.9°C | 0% | 0hPa | 0V | 00:00:00 | 00:00:00 | 00:00:00 | |
| ARGUS2 | 2026-09-03 13:46:09 | 27.84771 | -83.27520 | 295° | 46km/h | 10798m | -8.0m/s | -38.0°C | 0% | 0hPa | 0V | 00:00:00 | 00:00:00 | 00:00:00 | |
| ARGUS2 | 2026-09-03 13:45:49 | 27.84644 | -83.27280 | 308° | 46km/h | 10963m | -7.8m/s | -39.5°C | 0% | 0hPa | 0V | 00:00:00 | 00:00:00 | 00:00:00 | |
| ARGUS2 | 2026-09-03 13:45:28 | 27.84517 | -83.27064 | 295° | 46km/h | 11119m | -7.8m/s | -40.8°C | 0% | 0hPa | 0V | 00:00:00 | 00:00:00 | 00:00:00 | |
| ARGUS2 | 2026-09-03 13:45:08 | 27.84395 | -83.26841 | 310° | 40km/h | 11283m | -7.9m/s | -42.1°C | 0% | 0hPa | 0V | 00:00:00 | 00:00:00 | 00:00:00 | |
| ARGUS2 | 2026-09-03 13:44:47 | 27.84283 | -83.26642 | 301° | 44km/h | 11439m | -7.8m/s | -43.5°C | 0% | 0hPa | 0V | 00:00:00 | 00:00:00 | 00:00:00 | |
| ARGUS2 | 2026-09-03 13:44:27 | 27.84143 | -83.26418 | 305° | 44km/h | 11605m | -7.8m/s | -44.8°C | 0% | 0hPa | 0V | 00:00:00 | 00:00:00 | 00:00:00 | |
| ARGUS2 | 2026-09-03 13:44:06 | 27.84009 | -83.26167 | 304° | 55km/h | 11766m | -8.3m/s | -46.1°C | 0% | 0hPa | 0V | 00:00:00 | 00:00:00 | 00:00:00 | |
| ARGUS2 | 2026-09-03 13:43:46 | 27.83871 | -83.25902 | 300° | 55km/h | 11939m | -8.4m/s | -47.5°C | 0% | 0hPa | 0V | 00:00:00 | 00:00:00 | 00:00:00 | |
| ARGUS2 | 2026-09-03 13:43:26 | 27.83730 | -83.25668 | 302° | 44km/h | 12107m | -8.7m/s | -48.9°C | 0% | 0hPa | 0V | 00:00:00 | 00:00:00 | 00:00:00 | |
| ARGUS2 | 2026-09-03 13:43:05 | 27.83559 | -83.25429 | 318° | 51km/h | 12284m | -8.4m/s | -50.3°C | 0% | 0hPa | 0V | 00:00:00 | 00:00:00 | 00:00:00 | |
| ARGUS2 | 2026-09-03 13:42:43 | 27.83362 | -83.25197 | 321° | 53km/h | 12460m | -8.2m/s | -51.8°C | 0% | 0hPa | 0V | 00:00:00 | 00:00:00 | 00:00:00 | |
| ARGUS2 | 2026-09-03 13:42:23 | 27.83167 | -83.24988 | 313° | 49km/h | 12628m | -8.5m/s | -53.1°C | 0% | 0hPa | 0V | 00:00:00 | 00:00:00 | 00:00:00 | |
| ARGUS2 | 2026-09-03 13:42:03 | 27.82965 | -83.24767 | 314° | 57km/h | 12805m | -8.6m/s | -54.5°C | 0% | 0hPa | 0V | 00:00:00 | 00:00:00 | 00:00:00 | |
| ARGUS2 | 2026-09-03 13:41:42 | 27.82767 | -83.24575 | 316° | 57km/h | 12975m | -8.5m/s | -55.6°C | 0% | 0hPa | 0V | 00:00:00 | 00:00:00 | 00:00:00 | |
| ARGUS2 | 2026-09-03 13:41:22 | 27.82558 | -83.24349 | 322° | 57km/h | 13158m | -9.1m/s | -56.9°C | 0% | 0hPa | 0V | 00:00:00 | 00:00:00 | 00:00:00 | |
| ARGUS2 | 2026-09-03 13:41:01 | 27.82371 | -83.24136 | 314° | 62km/h | 13336m | -8.7m/s | -58.3°C | 0% | 0hPa | 0V | 00:00:00 | 00:00:00 | 00:00:00 | |
| ARGUS2 | 2026-09-03 13:40:40 | 27.82124 | -83.23920 | 319° | 62km/h | 13519m | -8.9m/s | -59.4°C | 0% | 0hPa | 0V | 00:00:00 | 00:00:00 | 00:00:00 | |
| ARGUS2 | 2026-09-03 13:40:20 | 27.81869 | -83.23733 | 321° | 51km/h | 13701m | -9.4m/s | -60.5°C | 0% | 0hPa | 0V | 00:00:00 | 00:00:00 | 00:00:00 | |
| ARGUS2 | 2026-09-03 13:39:59 | 27.81606 | -83.23509 | 326° | 51km/h | 13904m | -9.9m/s | -61.7°C | 0% | 0hPa | 0V | 00:00:00 | 00:00:00 | 00:00:00 | |
| ARGUS2 | 2026-09-03 13:39:39 | 27.81436 | -83.23351 | 307° | 38km/h | 14095m | -9.3m/s | -62.0°C | 0% | 0hPa | 0V | 00:00:00 | 00:00:00 | 00:00:00 | |
| ARGUS2 | 2026-09-03 13:39:18 | 27.81318 | -83.23197 | 306° | 27km/h | 14296m | -11.1m/s | -63.2°C | 0% | 0hPa | 0V | 00:00:00 | 00:00:00 | 00:00:00 | |
| ARGUS2 | 2026-09-03 13:38:58 | 27.81317 | -83.23058 | 243° | 26km/h | 14494m | -9.9m/s | -64.4°C | 0% | 0hPa | 0V | 00:00:00 | 00:00:00 | 00:00:00 | |
| ARGUS2 | 2026-09-03 13:38:38 | 27.81388 | -83.22895 | 244° | 33km/h | 14700m | -9.6m/s | -65.8°C | 0% | 0hPa | 0V | 00:00:00 | 00:00:00 | 00:00:00 | |
| ARGUS2 | 2026-09-03 13:38:17 | 27.81507 | -83.22728 | 225° | 46km/h | 14897m | -10.4m/s | -67.4°C | 0% | 0hPa | 0V | 00:00:00 | 00:00:00 | 00:00:00 | |
| ARGUS2 | 2026-09-03 13:37:57 | 27.81650 | -83.22522 | 237° | 40km/h | 15101m | -9.6m/s | -69.1°C | 0% | 0hPa | 0V | 00:00:00 | 00:00:00 | 00:00:00 | |
| ARGUS2 | 2026-09-03 13:37:35 | 27.81739 | -83.22216 | 275° | 68km/h | 15304m | -9.8m/s | -67.8°C | 0% | 0hPa | 0V | 00:00:00 | 00:00:00 | 00:00:00 | |
| ARGUS2 | 2026-09-03 13:37:15 | 27.81693 | -83.21857 | 291° | 58km/h | 15500m | -10.6m/s | -67.9°C | 0% | 0hPa | 0V | 00:00:00 | 00:00:00 | 00:00:00 | |
| ARGUS2 | 2026-09-03 13:36:55 | 27.81624 | -83.21576 | 275° | 42km/h | 15714m | -10.9m/s | -67.2°C | 0% | 0hPa | 0V | 00:00:00 | 00:00:00 | 00:00:00 | |
| ARGUS2 | 2026-09-03 13:36:34 | 27.81617 | -83.21330 | 284° | 38km/h | 15929m | -10.6m/s | -66.4°C | 0% | 0hPa | 0V | 00:00:00 | 00:00:00 | 00:00:00 | |
| ARGUS2 | 2026-09-03 13:36:13 | 27.81569 | -83.21084 | 282° | 44km/h | 16163m | -11.2m/s | -67.2°C | 0% | 0hPa | 0V | 00:00:00 | 00:00:00 | 00:00:00 | |
| ARGUS2 | 2026-09-03 13:35:53 | 27.81521 | -83.20890 | 284° | 27km/h | 16389m | -11.6m/s | -67.1°C | 0% | 0hPa | 0V | 00:00:00 | 00:00:00 | 00:00:00 | |
| ARGUS2 | 2026-09-03 13:35:32 | 27.81500 | -83.20749 | 272° | 26km/h | 16621m | -10.9m/s | -68.0°C | 0% | 0hPa | 0V | 00:00:00 | 00:00:00 | 00:00:00 | |
| ARGUS2 | 2026-09-03 13:35:12 | 27.81517 | -83.20571 | 261° | 44km/h | 16802m | -8.1m/s | -68.6°C | 0% | 0hPa | 0V | 00:00:00 | 00:00:00 | 00:00:00 | |
| ARGUS2 | 2026-09-03 13:34:52 | 27.81585 | -83.20349 | 247° | 37km/h | 16978m | -8.2m/s | -67.9°C | 0% | 0hPa | 0V | 00:00:00 | 00:00:00 | 00:00:00 | |
| ARGUS2 | 2026-09-03 13:34:31 | 27.81607 | -83.20170 | 278° | 31km/h | 17155m | -8.7m/s | -68.8°C | 0% | 0hPa | 0V | 00:00:00 | 00:00:00 | 00:00:00 | |
| ARGUS2 | 2026-09-03 13:34:10 | 27.81566 | -83.19997 | 294° | 27km/h | 17341m | -9.0m/s | -69.6°C | 0% | 0hPa | 0V | 00:00:00 | 00:00:00 | 00:00:00 | |
| ARGUS2 | 2026-09-03 13:33:50 | 27.81552 | -83.19823 | 255° | 37km/h | 17521m | -8.9m/s | -67.9°C | 0% | 0hPa | 0V | 00:00:00 | 00:00:00 | 00:00:00 | |
| ARGUS2 | 2026-09-03 13:33:30 | 27.81608 | -83.19641 | 264° | 29km/h | 17713m | -8.8m/s | -68.4°C | 0% | 0hPa | 0V | 00:00:00 | 00:00:00 | 00:00:00 | |
| ARGUS2 | 2026-09-03 13:33:09 | 27.81651 | -83.19482 | 251° | 35km/h | 17891m | -9.0m/s | -67.5°C | 0% | 0hPa | 0V | 00:00:00 | 00:00:00 | 00:00:00 | |
| ARGUS2 | 2026-09-03 13:32:49 | 27.81754 | -83.19275 | 238° | 40km/h | 18086m | -9.5m/s | -67.8°C | 0% | 0hPa | 0V | 00:00:00 | 00:00:00 | 00:00:00 | |
| ARGUS2 | 2026-09-03 13:32:27 | 27.81877 | -83.19004 | 256° | 55km/h | 18285m | -9.1m/s | -65.4°C | 0% | 0hPa | 0V | 00:00:00 | 00:00:00 | 00:00:00 | |
| ARGUS2 | 2026-09-03 13:32:07 | 27.81890 | -83.18743 | 270° | 38km/h | 18473m | -9.2m/s | -64.5°C | 0% | 0hPa | 0V | 00:00:00 | 00:00:00 | 00:00:00 | |
| ARGUS2 | 2026-09-03 13:31:46 | 27.81886 | -83.18542 | 285° | 31km/h | 18681m | -9.8m/s | -64.1°C | 0% | 0hPa | 0V | 00:00:00 | 00:00:00 | 00:00:00 | |
| ARGUS2 | 2026-09-03 13:31:26 | 27.81853 | -83.18406 | 268° | 16km/h | 18895m | -7.0m/s | -63.3°C | 0% | 0hPa | 0V | 00:00:00 | 00:00:00 | 00:00:00 | |
| ARGUS2 | 2026-09-03 13:31:05 | 27.81866 | -83.18316 | 277° | 20km/h | 19095m | -12.2m/s | -63.3°C | 0% | 0hPa | 0V | 00:00:00 | 00:00:00 | 00:00:00 | |
| ARGUS2 | 2026-09-03 13:30:45 | 27.81895 | -83.18147 | 261° | 35km/h | 19245m | -6.2m/s | -62.7°C | 0% | 0hPa | 0V | 00:00:00 | 00:00:00 | 00:00:00 | |
| ARGUS2 | 2026-09-03 13:30:25 | 27.81917 | -83.17931 | 266° | 29km/h | 19384m | -6.7m/s | -62.4°C | 0% | 0hPa | 0V | 00:00:00 | 00:00:00 | 00:00:00 | |
| ARGUS2 | 2026-09-03 13:30:04 | 27.81915 | -83.17780 | 270° | 20km/h | 19522m | -6.6m/s | -61.9°C | 0% | 0hPa | 0V | 00:00:00 | 00:00:00 | 00:00:00 | |
| ARGUS2 | 2026-09-03 13:29:43 | 27.81938 | -83.17643 | 253° | 20km/h | 19669m | -7.4m/s | -61.9°C | 0% | 0hPa | 0V | 00:00:00 | 00:00:00 | 00:00:00 | |
| ARGUS2 | 2026-09-03 13:29:23 | 27.82003 | -83.17534 | 225° | 26km/h | 19811m | -6.9m/s | -61.8°C | 0% | 0hPa | 0V | 00:00:00 | 00:00:00 | 00:00:00 | |
| ARGUS2 | 2026-09-03 13:29:03 | 27.82146 | -83.17434 | 223° | 35km/h | 19962m | -7.0m/s | -61.4°C | 0% | 0hPa | 0V | 00:00:00 | 00:00:00 | 00:00:00 | |
| ARGUS2 | 2026-09-03 13:28:43 | 27.82279 | -83.17299 | 222° | 37km/h | 20103m | -6.8m/s | -61.0°C | 0% | 0hPa | 0V | 00:00:00 | 00:00:00 | 00:00:00 | |
| ARGUS2 | 2026-09-03 13:28:22 | 27.82422 | -83.17143 | 237° | 35km/h | 20249m | -6.7m/s | -60.8°C | 0% | 0hPa | 0V | 00:00:00 | 00:00:00 | 00:00:00 | |
| ARGUS2 | 2026-09-03 13:28:01 | 27.82505 | -83.16972 | 248° | 33km/h | 20385m | -6.9m/s | -60.9°C | 0% | 0hPa | 0V | 00:00:00 | 00:00:00 | 00:00:00 | |
| ARGUS2 | 2026-09-03 13:27:41 | 27.82518 | -83.16775 | 282° | 38km/h | 20532m | -7.6m/s | -60.1°C | 0% | 0hPa | 0V | 00:00:00 | 00:00:00 | 00:00:00 | |
| ARGUS2 | 2026-09-03 13:27:19 | 27.82468 | -83.16555 | 292° | 35km/h | 20682m | -6.9m/s | -60.1°C | 0% | 0hPa | 0V | 00:00:00 | 00:00:00 | 00:00:00 | |
| ARGUS2 | 2026-09-03 13:26:59 | 27.82382 | -83.16348 | 296° | 38km/h | 20828m | -7.5m/s | -60.4°C | 0% | 0hPa | 0V | 00:00:00 | 00:00:00 | 00:00:00 | |
| ARGUS2 | 2026-09-03 13:26:38 | 27.82353 | -83.16127 | 261° | 42km/h | 20984m | -7.2m/s | -60.0°C | 0% | 0hPa | 0V | 00:00:00 | 00:00:00 | 00:00:00 | |
| ARGUS2 | 2026-09-03 13:26:18 | 27.82429 | -83.15873 | 252° | 57km/h | 21135m | -7.7m/s | -59.8°C | 0% | 0hPa | 0V | 00:00:00 | 00:00:00 | 00:00:00 | |
| ARGUS2 | 2026-09-03 13:25:57 | 27.82502 | -83.15527 | 271° | 55km/h | 21298m | -8.0m/s | -59.2°C | 0% | 0hPa | 0V | 00:00:00 | 00:00:00 | 00:00:00 | |
| ARGUS2 | 2026-09-03 13:25:37 | 27.82475 | -83.15217 | 282° | 55km/h | 21460m | -8.0m/s | -59.2°C | 0% | 0hPa | 0V | 00:00:00 | 00:00:00 | 00:00:00 | |
| ARGUS2 | 2026-09-03 13:25:16 | 27.82429 | -83.14919 | 275° | 49km/h | 21634m | -9.6m/s | -60.4°C | 0% | 0hPa | 0V | 00:00:00 | 00:00:00 | 00:00:00 | |
| ARGUS2 | 2026-09-03 13:24:56 | 27.82393 | -83.14659 | 282° | 38km/h | 21811m | -8.4m/s | -60.3°C | 0% | 0hPa | 0V | 00:00:00 | 00:00:00 | 00:00:00 | |
| ARGUS2 | 2026-09-03 13:24:36 | 27.82360 | -83.14418 | 270° | 40km/h | 22001m | -8.9m/s | -59.9°C | 0% | 0hPa | 0V | 00:00:00 | 00:00:00 | 00:00:00 | |
| ARGUS2 | 2026-09-03 13:23:54 | 27.82302 | -83.13856 | 278° | 37km/h | 22361m | -8.8m/s | -57.0°C | 0% | 0hPa | 0V | 00:00:00 | 00:00:00 | 00:00:00 | |
| ARGUS2 | 2026-09-03 13:23:34 | 27.82284 | -83.13673 | 278° | 31km/h | 22541m | -8.9m/s | -55.6°C | 0% | 0hPa | 0V | 00:00:00 | 00:00:00 | 00:00:00 | |
| ARGUS2 | 2026-09-03 13:23:14 | 27.82227 | -83.13465 | 284° | 47km/h | 22727m | -9.1m/s | -54.5°C | 0% | 0hPa | 0V | 00:00:00 | 00:00:00 | 00:00:00 | |
| ARGUS2 | 2026-09-03 13:22:53 | 27.82145 | -83.13252 | 298° | 37km/h | 22911m | -9.0m/s | -54.2°C | 0% | 0hPa | 0V | 00:00:00 | 00:00:00 | 00:00:00 | |
| ARGUS2 | 2026-09-03 13:22:33 | 27.82112 | -83.13060 | 270° | 35km/h | 23102m | -9.1m/s | -53.3°C | 0% | 0hPa | 0V | 00:00:00 | 00:00:00 | 00:00:00 | |
| ARGUS2 | 2026-09-03 13:22:12 | 27.82166 | -83.12864 | 245° | 44km/h | 23287m | -9.1m/s | -53.5°C | 0% | 0hPa | 0V | 00:00:00 | 00:00:00 | 00:00:00 | |
| ARGUS2 | 2026-09-03 13:21:52 | 27.82246 | -83.12688 | 246° | 29km/h | 23488m | -9.7m/s | -53.6°C | 0% | 0hPa | 0V | 00:00:00 | 00:00:00 | 00:00:00 | |
| ARGUS2 | 2026-09-03 13:21:30 | 27.82286 | -83.12504 | 271° | 35km/h | 23689m | -9.5m/s | -53.3°C | 0% | 0hPa | 0V | 00:00:00 | 00:00:00 | 00:00:00 | |
| ARGUS2 | 2026-09-03 13:21:10 | 27.82271 | -83.12267 | 283° | 46km/h | 23889m | -10.1m/s | -53.6°C | 0% | 0hPa | 0V | 00:00:00 | 00:00:00 | 00:00:00 | |
| ARGUS2 | 2026-09-03 13:20:50 | 27.82158 | -83.11992 | 294° | 49km/h | 24103m | -10.4m/s | -53.9°C | 0% | 0hPa | 0V | 00:00:00 | 00:00:00 | 00:00:00 | |
| ARGUS2 | 2026-09-03 13:20:08 | 27.82069 | -83.11453 | 282° | 51km/h | 24525m | -10.5m/s | -52.2°C | 0% | 0hPa | 0V | 00:00:00 | 00:00:00 | 00:00:00 | |
| ARGUS2 | 2026-09-03 13:19:48 | 27.82049 | -83.11147 | 272° | 53km/h | 24730m | -10.6m/s | -51.5°C | 0% | 0hPa | 0V | 00:00:00 | 00:00:00 | 00:00:00 | |
| ARGUS2 | 2026-09-03 13:19:28 | 27.82030 | -83.10866 | 281° | 46km/h | 24945m | -10.5m/s | -51.8°C | 0% | 0hPa | 0V | 00:00:00 | 00:00:00 | 00:00:00 | |
| ARGUS2 | 2026-09-03 13:19:07 | 27.82027 | -83.10592 | 258° | 55km/h | 25152m | -10.6m/s | -51.6°C | 0% | 0hPa | 0V | 00:00:00 | 00:00:00 | 00:00:00 | |
| ARGUS2 | 2026-09-03 13:18:47 | 27.82138 | -83.10241 | 255° | 62km/h | 25374m | -11.0m/s | -51.4°C | 0% | 0hPa | 0V | 00:00:00 | 00:00:00 | 00:00:00 | |
| ARGUS2 | 2026-09-03 13:18:26 | 27.82203 | -83.09949 | 264° | 46km/h | 25592m | -11.4m/s | -51.7°C | 0% | 0hPa | 0V | 00:00:00 | 00:00:00 | 00:00:00 | |
| ARGUS2 | 2026-09-03 13:18:06 | 27.82210 | -83.09695 | 262° | 46km/h | 25830m | -11.4m/s | -51.7°C | 0% | 0hPa | 0V | 00:00:00 | 00:00:00 | 00:00:00 | |
| ARGUS2 | 2026-09-03 13:17:45 | 27.82260 | -83.09404 | 256° | 64km/h | 26063m | -12.1m/s | -51.8°C | 0% | 0hPa | 0V | 00:00:00 | 00:00:00 | 00:00:00 | |
| ARGUS2 | 2026-09-03 13:17:25 | 27.82354 | -83.09068 | 256° | 60km/h | 26319m | -12.6m/s | -52.6°C | 0% | 0hPa | 0V | 00:00:00 | 00:00:00 | 00:00:00 | |
| ARGUS2 | 2026-09-03 13:17:04 | 27.82434 | -83.08741 | 260° | 60km/h | 26574m | -13.0m/s | -51.8°C | 0% | 0hPa | 0V | 00:00:00 | 00:00:00 | 00:00:00 | |
| ARGUS2 | 2026-09-03 13:16:44 | 27.82495 | -83.08352 | 260° | 62km/h | 26848m | -13.3m/s | -50.4°C | 0% | 0hPa | 0V | 00:00:00 | 00:00:00 | 00:00:00 | |
| ARGUS2 | 2026-09-03 13:16:22 | 27.82559 | -83.07999 | 267° | 62km/h | 27128m | -13.5m/s | -48.7°C | 0% | 0hPa | 0V | 00:00:00 | 00:00:00 | 00:00:00 | |
| ARGUS2 | 2026-09-03 13:16:02 | 27.82580 | -83.07642 | 270° | 62km/h | 27398m | -13.8m/s | -47.0°C | 0% | 0hPa | 0V | 00:00:00 | 00:00:00 | 00:00:00 | |
| ARGUS2 | 2026-09-03 13:15:42 | 27.82554 | -83.07225 | 278° | 71km/h | 27683m | -14.1m/s | -45.3°C | 0% | 0hPa | 0V | 00:00:00 | 00:00:00 | 00:00:00 | |
| ARGUS2 | 2026-09-03 13:15:21 | 27.82580 | -83.06838 | 264° | 64km/h | 27956m | -13.8m/s | -43.7°C | 0% | 0hPa | 0V | 00:00:00 | 00:00:00 | 00:00:00 | |
| ARGUS2 | 2026-09-03 13:15:00 | 27.82597 | -83.06452 | 256° | 75km/h | 28236m | -13.5m/s | -43.4°C | 0% | 0hPa | 0V | 00:00:00 | 00:00:00 | 00:00:00 | |
| ARGUS2 | 2026-09-03 13:14:39 | 27.82588 | -83.06054 | 278° | 60km/h | 28516m | -13.5m/s | -42.9°C | 0% | 0hPa | 0V | 00:00:00 | 00:00:00 | 00:00:00 | |
| ARGUS2 | 2026-09-03 13:13:56 | 27.82333 | -83.05372 | 294° | 55km/h | 29099m | -14.5m/s | -42.9°C | 0% | 0hPa | 0V | 00:00:00 | 00:00:00 | 00:00:00 | |
| ARGUS2 | 2026-09-03 13:13:35 | 27.82228 | -83.05070 | 296° | 53km/h | 29417m | -15.0m/s | -43.5°C | 0% | 0hPa | 0V | 00:00:00 | 00:00:00 | 00:00:00 | |
| ARGUS2 | 2026-09-03 13:13:14 | 27.82177 | -83.04810 | 264° | 38km/h | 29721m | -15.6m/s | -43.0°C | 0% | 0hPa | 0V | 00:00:00 | 00:00:00 | 00:00:00 | |
| ARGUS2 | 2026-09-03 13:12:53 | 27.82252 | -83.04561 | 232° | 42km/h | 30050m | -16.1m/s | -42.2°C | 0% | 0hPa | 0V | 00:00:00 | 00:00:00 | 00:00:00 | |
| ARGUS2 | 2026-09-03 13:12:33 | 27.82379 | -83.04323 | 256° | 51km/h | 30376m | -16.6m/s | -42.2°C | 0% | 0hPa | 0V | 00:00:00 | 00:00:00 | 00:00:00 | |
| ARGUS2 | 2026-09-03 13:12:13 | 27.82409 | -83.03923 | 275° | 71km/h | 30731m | -17.2m/s | -42.5°C | 0% | 0hPa | 0V | 00:00:00 | 00:00:00 | 00:00:00 | |
| ARGUS2 | 2026-09-03 13:11:51 | 27.82351 | -83.03541 | 283° | 55km/h | 31104m | -18.8m/s | -40.1°C | 0% | 0hPa | 0V | 00:00:00 | 00:00:00 | 00:00:00 | |
| ARGUS2 | 2026-09-03 13:11:30 | 27.82219 | -83.03220 | 308° | 68km/h | 31584m | -18.6m/s | -41.2°C | 0% | 0hPa | 0V | 00:00:00 | 00:00:00 | 00:00:00 | |
| ARGUS2 | 2026-09-03 13:11:04 | 27.81934 | -83.02808 | 302° | 75km/h | 32228m | -38.8m/s | -41.6°C | 0% | 0hPa | 0V | 00:00:00 | 00:00:00 | 00:00:00 | |
| ARGUS2 | 2026-09-03 13:10:41 | 27.81831 | -83.02570 | 296° | 106km/h | 32810m | -18.7m/s | -40.5°C | 0% | 0hPa | 0V | 00:00:00 | 00:00:00 | 00:00:00 | |
| ARGUS2 | 2026-09-03 13:10:18 | 27.81808 | -83.02203 | 215° | 46km/h | 33344m | -23.7m/s | -39.5°C | 0% | 0hPa | 0V | 00:00:00 | 00:00:00 | 00:00:00 | |
| ARGUS2 | 2026-09-03 13:09:57 | 27.81710 | -83.01963 | 318° | 77km/h | 33832m | -23.8m/s | -35.8°C | 0% | 0hPa | 0V | 00:00:00 | 00:00:00 | 00:00:00 | |
| ARGUS2 | 2026-09-03 13:07:35 | 27.81545 | -83.01479 | 260° | 44km/h | 33750m | 14.0m/s | -36.1°C | 0% | 0hPa | 0V | 00:00:00 | 00:00:00 | 00:00:00 | |
| ARGUS2 | 2026-09-03 13:07:14 | 27.81460 | -83.01249 | 231° | 40km/h | 33616m | 11.7m/s | 0°C | 0% | 0hPa | 0V | 00:00:00 | 00:00:00 | 00:00:00 | |
| ARGUS2 | 2026-09-03 13:06:19 | 27.81183 | -83.00428 | 290° | 93km/h | 33264m | 2.3m/s | -40.2°C | 0% | 0hPa | 0V | 00:00:00 | 00:00:00 | 00:00:00 | |
| ARGUS2 | 2026-09-03 13:05:56 | 27.81124 | -83.00130 | 259° | 51km/h | 33156m | 10.6m/s | -40.7°C | 0% | 0hPa | 0V | 00:00:00 | 00:00:00 | 00:00:00 | |
| ARGUS2 | 2026-09-03 13:03:38 | 27.80745 | -82.98170 | 280° | 75km/h | 32243m | 8.6m/s | -40.9°C | 0% | 0hPa | 0V | 00:00:00 | 00:00:00 | 00:00:00 | |
| ARGUS2 | 2026-09-03 13:03:03 | 27.80536 | -82.97777 | 306° | 102km/h | 32017m | 5.5m/s | -40.5°C | 0% | 0hPa | 0V | 00:00:00 | 00:00:00 | 00:00:00 | |
| ARGUS2 | 2026-09-03 13:02:37 | 27.80208 | -82.97278 | 325° | 82km/h | 31774m | 7.2m/s | -39.7°C | 0% | 0hPa | 0V | 00:00:00 | 00:00:00 | 00:00:00 | |
| ARGUS2 | 2026-09-03 13:02:12 | 27.79993 | -82.96916 | 304° | 115km/h | 31625m | 3.8m/s | -39.2°C | 0% | 0hPa | 0V | 00:00:00 | 00:00:00 | 00:00:00 | |
| ARGUS2 | 2026-09-03 13:01:31 | 27.79704 | -82.96190 | 287° | 73km/h | 31319m | 6.4m/s | -38.4°C | 0% | 0hPa | 0V | 00:00:00 | 00:00:00 | 00:00:00 | |
| ARGUS2 | 2026-09-03 13:01:10 | 27.79628 | -82.95856 | 268° | 37km/h | 31196m | 0.3m/s | -38.2°C | 0% | 0hPa | 0V | 00:00:00 | 00:00:00 | 00:00:00 | |
| ARGUS2 | 2026-09-03 13:00:50 | 27.79571 | -82.95498 | 286° | 62km/h | 31067m | 4.3m/s | -39.1°C | 0% | 0hPa | 0V | 00:00:00 | 00:00:00 | 00:00:00 | |
| ARGUS2 | 2026-09-03 13:00:29 | 27.79537 | -82.95158 | 259° | 53km/h | 30956m | 1.2m/s | -41.2°C | 0% | 0hPa | 0V | 00:00:00 | 00:00:00 | 00:00:00 | |
| ARGUS2 | 2026-09-03 13:00:09 | 27.79526 | -82.94743 | 273° | 29km/h | 30845m | 4.2m/s | -42.5°C | 0% | 0hPa | 0V | 00:00:00 | 00:00:00 | 00:00:00 | |
| ARGUS2 | 2026-09-03 12:59:47 | 27.79571 | -82.94376 | 257° | 53km/h | 30734m | 2.2m/s | -42.8°C | 0% | 0hPa | 0V | 00:00:00 | 00:00:00 | 00:00:00 | |
| ARGUS2 | 2026-09-03 12:59:26 | 27.79640 | -82.93926 | 264° | 88km/h | 30624m | 3.3m/s | -43.3°C | 0% | 0hPa | 0V | 00:00:00 | 00:00:00 | 00:00:00 | |
| ARGUS2 | 2026-09-03 12:59:04 | 27.79744 | -82.93564 | 248° | 71km/h | 30504m | 9.4m/s | -42.9°C | 0% | 0hPa | 0V | 00:00:00 | 00:00:00 | 00:00:00 | |
| ARGUS2 | 2026-09-03 12:58:44 | 27.79893 | -82.93234 | 225° | 46km/h | 30368m | 4.4m/s | -42.6°C | 0% | 0hPa | 0V | 00:00:00 | 00:00:00 | 00:00:00 | |
| ARGUS2 | 2026-09-03 12:58:20 | 27.80079 | -82.92980 | 217° | 37km/h | 30230m | 10.4m/s | -41.8°C | 0% | 0hPa | 0V | 00:00:00 | 00:00:00 | 00:00:00 | |
| ARGUS2 | 2026-09-03 12:58:00 | 27.80288 | -82.92783 | 242° | 55km/h | 30080m | 3.1m/s | -42.7°C | 0% | 0hPa | 0V | 00:00:00 | 00:00:00 | 00:00:00 | |
| ARGUS2 | 2026-09-03 12:57:39 | 27.80414 | -82.92553 | 215° | 42km/h | 29933m | 4.4m/s | -42.8°C | 0% | 0hPa | 0V | 00:00:00 | 00:00:00 | 00:00:00 | |
| ARGUS2 | 2026-09-03 12:57:19 | 27.80477 | -82.92287 | 250° | 40km/h | 29775m | 11.0m/s | -42.3°C | 0% | 0hPa | 0V | 00:00:00 | 00:00:00 | 00:00:00 | |
| ARGUS2 | 2026-09-03 12:56:58 | 27.80490 | -82.92090 | 289° | 44km/h | 29630m | 11.3m/s | -42.3°C | 0% | 0hPa | 0V | 00:00:00 | 00:00:00 | 00:00:00 | |
| ARGUS2 | 2026-09-03 12:56:38 | 27.80410 | -82.91814 | 292° | 31km/h | 29482m | 10.2m/s | -42.8°C | 0% | 0hPa | 0V | 00:00:00 | 00:00:00 | 00:00:00 | |
| ARGUS2 | 2026-09-03 12:56:14 | 27.80309 | -82.91514 | 275° | 47km/h | 29321m | 5.7m/s | -42.1°C | 0% | 0hPa | 0V | 00:00:00 | 00:00:00 | 00:00:00 | |
| ARGUS2 | 2026-09-03 12:55:29 | 27.80027 | -82.90885 | 270° | 31km/h | 29033m | 7.5m/s | -41.5°C | 0% | 0hPa | 0V | 00:00:00 | 00:00:00 | 00:00:00 | |
| ARGUS2 | 2026-09-03 12:55:08 | 27.79888 | -82.90643 | 326° | 68km/h | 28907m | 4.2m/s | -41.4°C | 0% | 0hPa | 0V | 00:00:00 | 00:00:00 | 00:00:00 | |
| ARGUS2 | 2026-09-03 12:54:48 | 27.79732 | -82.90343 | 299° | 77km/h | 28774m | 6.6m/s | -42.7°C | 0% | 0hPa | 0V | 00:00:00 | 00:00:00 | 00:00:00 | |
| ARGUS2 | 2026-09-03 12:54:26 | 27.79605 | -82.89999 | 282° | 73km/h | 28648m | 9.0m/s | -43.3°C | 0% | 0hPa | 0V | 00:00:00 | 00:00:00 | 00:00:00 | |
| ARGUS2 | 2026-09-03 12:54:03 | 27.79512 | -82.89565 | 298° | 78km/h | 28506m | 6.9m/s | -43.6°C | 0% | 0hPa | 0V | 00:00:00 | 00:00:00 | 00:00:00 | |
| ARGUS2 | 2026-09-03 12:53:43 | 27.79480 | -82.89198 | 256° | 58km/h | 28381m | 4.0m/s | -44.8°C | 0% | 0hPa | 0V | 00:00:00 | 00:00:00 | 00:00:00 | |
| ARGUS2 | 2026-09-03 12:53:22 | 27.79447 | -82.88806 | 273° | 53km/h | 28242m | 5.6m/s | -44.8°C | 0% | 0hPa | 0V | 00:00:00 | 00:00:00 | 00:00:00 | |
| ARGUS2 | 2026-09-03 12:53:01 | 27.79389 | -82.88429 | 263° | 49km/h | 28106m | 8.2m/s | -45.6°C | 0% | 0hPa | 0V | 00:00:00 | 00:00:00 | 00:00:00 | |
| ARGUS2 | 2026-09-03 12:52:41 | 27.79360 | -82.87999 | 277° | 69km/h | 27962m | 9.1m/s | -46.4°C | 0% | 0hPa | 0V | 00:00:00 | 00:00:00 | 00:00:00 | |
| ARGUS2 | 2026-09-03 12:52:20 | 27.79277 | -82.87583 | 281° | 64km/h | 27819m | 9.7m/s | -47.5°C | 0% | 0hPa | 0V | 00:00:00 | 00:00:00 | 00:00:00 | |
| ARGUS2 | 2026-09-03 12:52:00 | 27.79197 | -82.87158 | 276° | 78km/h | 27674m | 7.7m/s | -48.3°C | 0% | 0hPa | 0V | 00:00:00 | 00:00:00 | 00:00:00 | |
| ARGUS2 | 2026-09-03 12:51:39 | 27.79140 | -82.86745 | 267° | 69km/h | 27542m | 7.2m/s | -48.7°C | 0% | 0hPa | 0V | 00:00:00 | 00:00:00 | 00:00:00 | |
| ARGUS2 | 2026-09-03 12:51:17 | 27.79113 | -82.86308 | 270° | 53km/h | 27390m | 7.5m/s | -49.7°C | 0% | 0hPa | 0V | 00:00:00 | 00:00:00 | 00:00:00 | |
| ARGUS2 | 2026-09-03 12:50:56 | 27.79136 | -82.85934 | 272° | 58km/h | 27266m | 7.6m/s | -50.1°C | 0% | 0hPa | 0V | 00:00:00 | 00:00:00 | 00:00:00 | |
| ARGUS2 | 2026-09-03 12:50:36 | 27.79170 | -82.85533 | 246° | 53km/h | 27142m | 5.7m/s | -50.4°C | 0% | 0hPa | 0V | 00:00:00 | 00:00:00 | 00:00:00 | |
| ARGUS2 | 2026-09-03 12:50:15 | 27.79206 | -82.85197 | 260° | 46km/h | 27032m | 6.1m/s | -50.9°C | 0% | 0hPa | 0V | 00:00:00 | 00:00:00 | 00:00:00 | |
| ARGUS2 | 2026-09-03 12:49:55 | 27.79257 | -82.84853 | 257° | 57km/h | 26917m | 7.6m/s | -51.4°C | 0% | 0hPa | 0V | 00:00:00 | 00:00:00 | 00:00:00 | |
| ARGUS2 | 2026-09-03 12:49:33 | 27.79300 | -82.84465 | 277° | 66km/h | 26802m | 5.9m/s | -52.5°C | 0% | 0hPa | 0V | 00:00:00 | 00:00:00 | 00:00:00 | |
| ARGUS2 | 2026-09-03 12:49:13 | 27.79335 | -82.84110 | 261° | 55km/h | 26684m | 6.5m/s | -53.0°C | 0% | 0hPa | 0V | 00:00:00 | 00:00:00 | 00:00:00 | |
| ARGUS2 | 2026-09-03 12:48:52 | 27.79395 | -82.83799 | 233° | 51km/h | 26554m | 7.4m/s | -53.3°C | 0% | 0hPa | 0V | 00:00:00 | 00:00:00 | 00:00:00 | |
| ARGUS2 | 2026-09-03 12:48:32 | 27.79484 | -82.83536 | 235° | 60km/h | 26429m | 7.1m/s | -53.2°C | 0% | 0hPa | 0V | 00:00:00 | 00:00:00 | 00:00:00 | |
| ARGUS2 | 2026-09-03 12:48:11 | 27.79583 | -82.83230 | 236° | 58km/h | 26294m | 4.1m/s | -52.4°C | 0% | 0hPa | 0V | 00:00:00 | 00:00:00 | 00:00:00 | |
| ARGUS2 | 2026-09-03 12:47:51 | 27.79669 | -82.82975 | 231° | 44km/h | 26164m | 2.7m/s | -52.1°C | 0% | 0hPa | 0V | 00:00:00 | 00:00:00 | 00:00:00 | |
| ARGUS2 | 2026-09-03 12:47:30 | 27.79745 | -82.82691 | 262° | 44km/h | 26025m | 7.8m/s | -51.7°C | 0% | 0hPa | 0V | 00:00:00 | 00:00:00 | 00:00:00 | |
| ARGUS2 | 2026-09-03 12:47:10 | 27.79770 | -82.82462 | 276° | 38km/h | 25896m | 7.6m/s | -51.4°C | 0% | 0hPa | 0V | 00:00:00 | 00:00:00 | 00:00:00 | |
| ARGUS2 | 2026-09-03 12:46:50 | 27.79751 | -82.82254 | 294° | 55km/h | 25762m | 6.6m/s | -51.1°C | 0% | 0hPa | 0V | 00:00:00 | 00:00:00 | 00:00:00 | |
| ARGUS2 | 2026-09-03 12:46:29 | 27.79725 | -82.82063 | 288° | 47km/h | 25643m | 6.4m/s | -51.0°C | 0% | 0hPa | 0V | 00:00:00 | 00:00:00 | 00:00:00 | |
| ARGUS2 | 2026-09-03 12:46:09 | 27.79683 | -82.81878 | 301° | 37km/h | 25518m | 4.3m/s | -50.8°C | 0% | 0hPa | 0V | 00:00:00 | 00:00:00 | 00:00:00 | |
| ARGUS2 | 2026-09-03 12:45:48 | 27.79706 | -82.81668 | 280° | 37km/h | 25402m | 6.0m/s | -50.2°C | 0% | 0hPa | 0V | 00:00:00 | 00:00:00 | 00:00:00 | |
| ARGUS2 | 2026-09-03 12:45:28 | 27.79787 | -82.81403 | 254° | 64km/h | 25280m | 6.5m/s | -50.2°C | 0% | 0hPa | 0V | 00:00:00 | 00:00:00 | 00:00:00 | |
| ARGUS2 | 2026-09-03 12:45:06 | 27.79921 | -82.81081 | 236° | 64km/h | 25163m | 6.8m/s | -50.0°C | 0% | 0hPa | 0V | 00:00:00 | 00:00:00 | 00:00:00 | |
| ARGUS2 | 2026-09-03 12:44:46 | 27.80057 | -82.80817 | 241° | 47km/h | 25046m | 5.8m/s | -49.6°C | 0% | 0hPa | 0V | 00:00:00 | 00:00:00 | 00:00:00 | |
| ARGUS2 | 2026-09-03 12:44:25 | 27.80152 | -82.80563 | 286° | 33km/h | 24930m | 6.4m/s | -49.6°C | 0% | 0hPa | 0V | 00:00:00 | 00:00:00 | 00:00:00 | |
| ARGUS2 | 2026-09-03 12:44:05 | 27.80173 | -82.80341 | 279° | 55km/h | 24815m | 5.0m/s | -49.8°C | 0% | 0hPa | 0V | 00:00:00 | 00:00:00 | 00:00:00 | |
| ARGUS2 | 2026-09-03 12:43:44 | 27.80151 | -82.80108 | 265° | 37km/h | 24682m | 4.9m/s | -50.0°C | 0% | 0hPa | 0V | 00:00:00 | 00:00:00 | 00:00:00 | |
| ARGUS2 | 2026-09-03 12:43:24 | 27.80155 | -82.79868 | 268° | 58km/h | 24556m | 7.4m/s | -49.7°C | 0% | 0hPa | 0V | 00:00:00 | 00:00:00 | 00:00:00 | |
| ARGUS2 | 2026-09-03 12:43:04 | 27.80174 | -82.79565 | 270° | 68km/h | 24425m | 5.6m/s | -50.0°C | 0% | 0hPa | 0V | 00:00:00 | 00:00:00 | 00:00:00 | |
| ARGUS2 | 2026-09-03 12:42:43 | 27.80133 | -82.79275 | 272° | 53km/h | 24300m | 7.8m/s | -50.5°C | 0% | 0hPa | 0V | 00:00:00 | 00:00:00 | 00:00:00 | |
| ARGUS2 | 2026-09-03 12:42:23 | 27.80118 | -82.78975 | 258° | 46km/h | 24166m | 4.7m/s | -51.1°C | 0% | 0hPa | 0V | 00:00:00 | 00:00:00 | 00:00:00 | |
| ARGUS2 | 2026-09-03 12:42:02 | 27.80089 | -82.78711 | 280° | 38km/h | 24047m | 6.1m/s | -51.9°C | 0% | 0hPa | 0V | 00:00:00 | 00:00:00 | 00:00:00 | |
| ARGUS2 | 2026-09-03 12:41:42 | 27.80007 | -82.78384 | 306° | 57km/h | 23923m | 6.2m/s | -52.3°C | 0% | 0hPa | 0V | 00:00:00 | 00:00:00 | 00:00:00 | |
| ARGUS2 | 2026-09-03 12:41:21 | 27.79947 | -82.78060 | 274° | 53km/h | 23815m | 5.8m/s | -53.3°C | 0% | 0hPa | 0V | 00:00:00 | 00:00:00 | 00:00:00 | |
| ARGUS2 | 2026-09-03 12:41:00 | 27.79939 | -82.77773 | 273° | 37km/h | 23696m | 5.9m/s | -53.7°C | 0% | 0hPa | 0V | 00:00:00 | 00:00:00 | 00:00:00 | |
| ARGUS2 | 2026-09-03 12:40:40 | 27.79957 | -82.77553 | 255° | 35km/h | 23582m | 6.9m/s | -54.3°C | 0% | 0hPa | 0V | 00:00:00 | 00:00:00 | 00:00:00 | |
| ARGUS2 | 2026-09-03 12:40:20 | 27.80007 | -82.77342 | 256° | 40km/h | 23464m | 6.6m/s | -54.8°C | 0% | 0hPa | 0V | 00:00:00 | 00:00:00 | 00:00:00 | |
| ARGUS2 | 2026-09-03 12:39:59 | 27.80075 | -82.77093 | 254° | 49km/h | 23349m | 4.1m/s | -55.0°C | 0% | 0hPa | 0V | 00:00:00 | 00:00:00 | 00:00:00 | |
| ARGUS2 | 2026-09-03 12:39:39 | 27.80099 | -82.76839 | 277° | 51km/h | 23235m | 5.9m/s | -55.0°C | 0% | 0hPa | 0V | 00:00:00 | 00:00:00 | 00:00:00 | |
| ARGUS2 | 2026-09-03 12:39:17 | 27.80064 | -82.76596 | 294° | 35km/h | 23113m | 5.2m/s | -56.1°C | 0% | 0hPa | 0V | 00:00:00 | 00:00:00 | 00:00:00 | |
| ARGUS2 | 2026-09-03 12:38:57 | 27.80018 | -82.76339 | 282° | 47km/h | 23001m | 5.8m/s | -56.9°C | 0% | 0hPa | 0V | 00:00:00 | 00:00:00 | 00:00:00 | |
| ARGUS2 | 2026-09-03 12:38:36 | 27.79968 | -82.76057 | 286° | 60km/h | 22884m | 5.9m/s | -57.3°C | 0% | 0hPa | 0V | 00:00:00 | 00:00:00 | 00:00:00 | |
| ARGUS2 | 2026-09-03 12:38:16 | 27.79906 | -82.75822 | 274° | 40km/h | 22778m | 7.0m/s | -57.8°C | 0% | 0hPa | 0V | 00:00:00 | 00:00:00 | 00:00:00 | |
| ARGUS2 | 2026-09-03 12:37:55 | 27.79882 | -82.75601 | 275° | 37km/h | 22661m | 6.6m/s | -57.9°C | 0% | 0hPa | 0V | 00:00:00 | 00:00:00 | 00:00:00 | |
| ARGUS2 | 2026-09-03 12:37:35 | 27.79869 | -82.75391 | 281° | 42km/h | 22553m | 5.7m/s | -58.5°C | 0% | 0hPa | 0V | 00:00:00 | 00:00:00 | 00:00:00 | |
| ARGUS2 | 2026-09-03 12:37:15 | 27.79835 | -82.75156 | 283° | 46km/h | 22443m | 6.2m/s | -59.4°C | 0% | 0hPa | 0V | 00:00:00 | 00:00:00 | 00:00:00 | |
| ARGUS2 | 2026-09-03 12:36:54 | 27.79808 | -82.74904 | 279° | 53km/h | 22336m | 5.2m/s | -60.0°C | 0% | 0hPa | 0V | 00:00:00 | 00:00:00 | 00:00:00 | |
| ARGUS2 | 2026-09-03 12:36:34 | 27.79799 | -82.74564 | 271° | 53km/h | 22224m | 6.0m/s | -60.1°C | 0% | 0hPa | 0V | 00:00:00 | 00:00:00 | 00:00:00 | |
| ARGUS2 | 2026-09-03 12:36:14 | 27.79783 | -82.74280 | 268° | 40km/h | 22121m | 7.4m/s | -60.7°C | 0% | 0hPa | 0V | 00:00:00 | 00:00:00 | 00:00:00 | |
| ARGUS2 | 2026-09-03 12:35:32 | 27.79734 | -82.73833 | 300° | 27km/h | 21898m | 6.9m/s | -60.1°C | 0% | 0hPa | 0V | 00:00:00 | 00:00:00 | 00:00:00 | |
| ARGUS2 | 2026-09-03 12:35:12 | 27.79670 | -82.73618 | 293° | 37km/h | 21776m | 4.8m/s | -60.0°C | 0% | 0hPa | 0V | 00:00:00 | 00:00:00 | 00:00:00 | |
| ARGUS2 | 2026-09-03 12:34:51 | 27.79604 | -82.73363 | 290° | 47km/h | 21657m | 7.2m/s | -59.0°C | 0% | 0hPa | 0V | 00:00:00 | 00:00:00 | 00:00:00 | |
| ARGUS2 | 2026-09-03 12:34:31 | 27.79533 | -82.73089 | 307° | 53km/h | 21536m | 5.1m/s | -59.1°C | 0% | 0hPa | 0V | 00:00:00 | 00:00:00 | 00:00:00 | |
| ARGUS2 | 2026-09-03 12:34:09 | 27.79460 | -82.72800 | 279° | 55km/h | 21411m | 5.8m/s | -57.9°C | 0% | 0hPa | 0V | 00:00:00 | 00:00:00 | 00:00:00 | |
| ARGUS2 | 2026-09-03 12:33:49 | 27.79425 | -82.72514 | 265° | 44km/h | 21299m | 4.4m/s | -57.1°C | 0% | 0hPa | 0V | 00:00:00 | 00:00:00 | 00:00:00 | |
| ARGUS2 | 2026-09-03 12:33:29 | 27.79386 | -82.72203 | 293° | 49km/h | 21188m | 4.4m/s | -56.5°C | 0% | 0hPa | 0V | 00:00:00 | 00:00:00 | 00:00:00 | |
| ARGUS2 | 2026-09-03 12:33:08 | 27.79361 | -82.71900 | 270° | 68km/h | 21088m | 6.5m/s | -56.6°C | 0% | 0hPa | 0V | 00:00:00 | 00:00:00 | 00:00:00 | |
| ARGUS2 | 2026-09-03 12:32:27 | 27.79484 | -82.71273 | 252° | 58km/h | 20886m | 4.6m/s | -56.7°C | 0% | 0hPa | 0V | 00:00:00 | 00:00:00 | 00:00:00 | |
| ARGUS2 | 2026-09-03 12:32:07 | 27.79630 | -82.70981 | 231° | 53km/h | 20786m | 4.8m/s | -56.5°C | 0% | 0hPa | 0V | 00:00:00 | 00:00:00 | 00:00:00 | |
| ARGUS2 | 2026-09-03 12:31:46 | 27.79738 | -82.70750 | 253° | 38km/h | 20690m | 5.1m/s | -57.2°C | 0% | 0hPa | 0V | 00:00:00 | 00:00:00 | 00:00:00 | |
| ARGUS2 | 2026-09-03 12:31:26 | 27.79752 | -82.70506 | 272° | 42km/h | 20583m | 5.7m/s | -57.6°C | 0% | 0hPa | 0V | 00:00:00 | 00:00:00 | 00:00:00 | |
| ARGUS2 | 2026-09-03 12:31:05 | 27.79681 | -82.70274 | 297° | 55km/h | 20485m | 6.1m/s | -58.1°C | 0% | 0hPa | 0V | 00:00:00 | 00:00:00 | 00:00:00 | |
| ARGUS2 | 2026-09-03 12:30:45 | 27.79584 | -82.70031 | 292° | 44km/h | 20381m | 5.9m/s | -57.8°C | 0% | 0hPa | 0V | 00:00:00 | 00:00:00 | 00:00:00 | |
| ARGUS2 | 2026-09-03 12:30:24 | 27.79525 | -82.69803 | 293° | 33km/h | 20282m | 4.0m/s | -58.4°C | 0% | 0hPa | 0V | 00:00:00 | 00:00:00 | 00:00:00 | |
| ARGUS2 | 2026-09-03 12:30:04 | 27.79512 | -82.69572 | 257° | 35km/h | 20180m | 4.4m/s | -60.2°C | 0% | 0hPa | 0V | 00:00:00 | 00:00:00 | 00:00:00 | |
| ARGUS2 | 2026-09-03 12:29:43 | 27.79563 | -82.69438 | 238° | 16km/h | 20079m | 4.9m/s | -60.5°C | 0% | 0hPa | 0V | 00:00:00 | 00:00:00 | 00:00:00 | |
| ARGUS2 | 2026-09-03 12:29:23 | 27.79616 | -82.69296 | 254° | 26km/h | 19971m | 6.5m/s | -61.6°C | 0% | 0hPa | 0V | 00:00:00 | 00:00:00 | 00:00:00 | |
| ARGUS2 | 2026-09-03 12:29:01 | 27.79697 | -82.69191 | 239° | 27km/h | 19860m | 6.0m/s | -62.4°C | 0% | 0hPa | 0V | 00:00:00 | 00:00:00 | 00:00:00 | |
| ARGUS2 | 2026-09-03 12:28:41 | 27.79768 | -82.69078 | 260° | 24km/h | 19757m | 6.2m/s | -62.8°C | 0% | 0hPa | 0V | 00:00:00 | 00:00:00 | 00:00:00 | |
| ARGUS2 | 2026-09-03 12:28:21 | 27.79804 | -82.68951 | 289° | 16km/h | 19651m | 5.7m/s | -62.3°C | 0% | 0hPa | 0V | 00:00:00 | 00:00:00 | 00:00:00 | |
| ARGUS2 | 2026-09-03 12:28:00 | 27.79812 | -82.68807 | 277° | 22km/h | 19551m | 5.9m/s | -62.2°C | 0% | 0hPa | 0V | 00:00:00 | 00:00:00 | 00:00:00 | |
| ARGUS2 | 2026-09-03 12:27:40 | 27.79831 | -82.68672 | 264° | 24km/h | 19452m | 5.0m/s | -62.2°C | 0% | 0hPa | 0V | 00:00:00 | 00:00:00 | 00:00:00 | |
| ARGUS2 | 2026-09-03 12:27:19 | 27.79848 | -82.68491 | 279° | 51km/h | 19357m | 3.9m/s | -63.3°C | 0% | 0hPa | 0V | 00:00:00 | 00:00:00 | 00:00:00 | |
| ARGUS2 | 2026-09-03 12:26:59 | 27.79886 | -82.68285 | 236° | 26km/h | 19255m | 4.0m/s | -63.8°C | 0% | 0hPa | 0V | 00:00:00 | 00:00:00 | 00:00:00 | |
| ARGUS2 | 2026-09-03 12:26:38 | 27.79959 | -82.68136 | 253° | 24km/h | 19155m | 5.3m/s | -63.7°C | 0% | 0hPa | 0V | 00:00:00 | 00:00:00 | 00:00:00 | |
| ARGUS2 | 2026-09-03 12:26:16 | 27.80014 | -82.68030 | 270° | 16km/h | 19045m | 5.9m/s | -63.9°C | 0% | 0hPa | 0V | 00:00:00 | 00:00:00 | 00:00:00 | |
| ARGUS2 | 2026-09-03 12:25:55 | 27.80026 | -82.67953 | 280° | 16km/h | 18949m | 4.9m/s | -63.9°C | 0% | 0hPa | 0V | 00:00:00 | 00:00:00 | 00:00:00 | |
| ARGUS2 | 2026-09-03 12:25:34 | 27.80004 | -82.67833 | 264° | 18km/h | 18844m | 5.7m/s | -64.8°C | 0% | 0hPa | 0V | 00:00:00 | 00:00:00 | 00:00:00 | |
| ARGUS2 | 2026-09-03 12:25:14 | 27.79982 | -82.67682 | 285° | 37km/h | 18746m | 4.4m/s | -65.0°C | 0% | 0hPa | 0V | 00:00:00 | 00:00:00 | 00:00:00 | |
| ARGUS2 | 2026-09-03 12:24:54 | 27.79968 | -82.67511 | 262° | 40km/h | 18641m | 4.9m/s | -65.6°C | 0% | 0hPa | 0V | 00:00:00 | 00:00:00 | 00:00:00 | |
| ARGUS2 | 2026-09-03 12:24:33 | 27.79986 | -82.67344 | 270° | 33km/h | 18544m | 5.8m/s | -64.8°C | 0% | 0hPa | 0V | 00:00:00 | 00:00:00 | 00:00:00 | |
| ARGUS2 | 2026-09-03 12:24:13 | 27.79995 | -82.67148 | 265° | 40km/h | 18441m | 5.9m/s | -64.3°C | 0% | 0hPa | 0V | 00:00:00 | 00:00:00 | 00:00:00 | |
| ARGUS2 | 2026-09-03 12:23:52 | 27.80017 | -82.66894 | 259° | 58km/h | 18343m | 5.4m/s | -65.7°C | 0% | 0hPa | 0V | 00:00:00 | 00:00:00 | 00:00:00 | |
| ARGUS2 | 2026-09-03 12:23:32 | 27.80116 | -82.66622 | 239° | 62km/h | 18238m | 5.9m/s | -66.5°C | 0% | 0hPa | 0V | 00:00:00 | 00:00:00 | 00:00:00 | |
| ARGUS2 | 2026-09-03 12:23:11 | 27.80288 | -82.66373 | 235° | 60km/h | 18143m | 4.3m/s | -67.7°C | 0% | 0hPa | 0V | 00:00:00 | 00:00:00 | 00:00:00 | |
| ARGUS2 | 2026-09-03 12:22:51 | 27.80459 | -82.66154 | 236° | 49km/h | 18049m | 6.1m/s | -67.9°C | 0% | 0hPa | 0V | 00:00:00 | 00:00:00 | 00:00:00 | |
| ARGUS2 | 2026-09-03 12:22:29 | 27.80592 | -82.65936 | 238° | 55km/h | 17952m | 5.1m/s | -68.4°C | 0% | 0hPa | 0V | 00:00:00 | 00:00:00 | 00:00:00 | |
| ARGUS2 | 2026-09-03 12:22:09 | 27.80714 | -82.65770 | 235° | 47km/h | 17862m | 3.5m/s | -68.2°C | 0% | 0hPa | 0V | 00:00:00 | 00:00:00 | 00:00:00 | |
| ARGUS2 | 2026-09-03 12:21:49 | 27.80836 | -82.65624 | 244° | 29km/h | 17767m | 5.1m/s | -67.8°C | 0% | 0hPa | 0V | 00:00:00 | 00:00:00 | 00:00:00 | |
| ARGUS2 | 2026-09-03 12:21:28 | 27.80920 | -82.65465 | 246° | 33km/h | 17680m | 4.7m/s | -67.5°C | 0% | 0hPa | 0V | 00:00:00 | 00:00:00 | 00:00:00 | |
| ARGUS2 | 2026-09-03 12:21:08 | 27.80975 | -82.65305 | 261° | 26km/h | 17586m | 4.9m/s | -67.1°C | 0% | 0hPa | 0V | 00:00:00 | 00:00:00 | 00:00:00 | |
| ARGUS2 | 2026-09-03 12:20:47 | 27.80999 | -82.65122 | 260° | 26km/h | 17491m | 4.9m/s | -68.2°C | 0% | 0hPa | 0V | 00:00:00 | 00:00:00 | 00:00:00 | |
| ARGUS2 | 2026-09-03 12:20:27 | 27.80974 | -82.64937 | 286° | 47km/h | 17397m | 4.1m/s | -69.5°C | 0% | 0hPa | 0V | 00:00:00 | 00:00:00 | 00:00:00 | |
| ARGUS2 | 2026-09-03 12:20:06 | 27.80920 | -82.64775 | 279° | 40km/h | 17307m | 4.6m/s | -69.6°C | 0% | 0hPa | 0V | 00:00:00 | 00:00:00 | 00:00:00 | |
| ARGUS2 | 2026-09-03 12:19:46 | 27.80893 | -82.64597 | 262° | 24km/h | 17209m | 4.6m/s | -69.1°C | 0% | 0hPa | 0V | 00:00:00 | 00:00:00 | 00:00:00 | |
| ARGUS2 | 2026-09-03 12:19:26 | 27.80904 | -82.64417 | 267° | 35km/h | 17118m | 4.2m/s | -68.6°C | 0% | 0hPa | 0V | 00:00:00 | 00:00:00 | 00:00:00 | |
| ARGUS2 | 2026-09-03 12:19:05 | 27.80958 | -82.64243 | 257° | 42km/h | 17019m | 4.3m/s | -68.5°C | 0% | 0hPa | 0V | 00:00:00 | 00:00:00 | 00:00:00 | |
| ARGUS2 | 2026-09-03 12:18:45 | 27.81057 | -82.64055 | 236° | 35km/h | 16928m | 4.7m/s | -69.2°C | 0% | 0hPa | 0V | 00:00:00 | 00:00:00 | 00:00:00 | |
| ARGUS2 | 2026-09-03 12:18:24 | 27.81132 | -82.63864 | 261° | 47km/h | 16830m | 4.3m/s | -68.7°C | 0% | 0hPa | 0V | 00:00:00 | 00:00:00 | 00:00:00 | |
| ARGUS2 | 2026-09-03 12:18:04 | 27.81181 | -82.63693 | 234° | 24km/h | 16734m | 5.0m/s | -68.0°C | 0% | 0hPa | 0V | 00:00:00 | 00:00:00 | 00:00:00 | |
| ARGUS2 | 2026-09-03 12:17:43 | 27.81193 | -82.63566 | 288° | 9km/h | 16636m | 5.3m/s | -68.0°C | 0% | 0hPa | 0V | 00:00:00 | 00:00:00 | 00:00:00 | |
| ARGUS2 | 2026-09-03 12:17:22 | 27.81149 | -82.63462 | 302° | 24km/h | 16542m | 4.9m/s | -67.7°C | 0% | 0hPa | 0V | 00:00:00 | 00:00:00 | 00:00:00 | |
| ARGUS2 | 2026-09-03 12:17:01 | 27.81095 | -82.63342 | 284° | 24km/h | 16455m | 4.7m/s | -67.2°C | 0% | 0hPa | 0V | 00:00:00 | 00:00:00 | 00:00:00 | |
| ARGUS2 | 2026-09-03 12:16:41 | 27.81049 | -82.63188 | 274° | 31km/h | 16366m | 5.4m/s | -67.1°C | 0% | 0hPa | 0V | 00:00:00 | 00:00:00 | 00:00:00 | |
| ARGUS2 | 2026-09-03 12:16:20 | 27.81005 | -82.62985 | 274° | 44km/h | 16265m | 4.3m/s | -67.5°C | 0% | 0hPa | 0V | 00:00:00 | 00:00:00 | 00:00:00 | |
| ARGUS2 | 2026-09-03 12:16:00 | 27.80968 | -82.62729 | 293° | 38km/h | 16175m | 4.7m/s | -67.7°C | 0% | 0hPa | 0V | 00:00:00 | 00:00:00 | 00:00:00 | |
| ARGUS2 | 2026-09-03 12:15:39 | 27.80919 | -82.62496 | 274° | 44km/h | 16089m | 4.8m/s | -67.5°C | 0% | 0hPa | 0V | 00:00:00 | 00:00:00 | 00:00:00 | |
| ARGUS2 | 2026-09-03 12:15:19 | 27.80893 | -82.62272 | 271° | 57km/h | 15994m | 3.6m/s | -68.0°C | 0% | 0hPa | 0V | 00:00:00 | 00:00:00 | 00:00:00 | |
| ARGUS2 | 2026-09-03 12:14:58 | 27.80913 | -82.62057 | 272° | 29km/h | 15901m | 4.5m/s | -67.5°C | 0% | 0hPa | 0V | 00:00:00 | 00:00:00 | 00:00:00 | |
| ARGUS2 | 2026-09-03 12:14:38 | 27.80930 | -82.61825 | 276° | 35km/h | 15805m | 6.3m/s | -68.1°C | 0% | 0hPa | 0V | 00:00:00 | 00:00:00 | 00:00:00 | |
| ARGUS2 | 2026-09-03 12:14:17 | 27.80899 | -82.61628 | 294° | 37km/h | 15708m | 4.6m/s | -68.6°C | 0% | 0hPa | 0V | 00:00:00 | 00:00:00 | 00:00:00 | |
| ARGUS2 | 2026-09-03 12:13:57 | 27.80841 | -82.61371 | 266° | 55km/h | 15606m | 5.2m/s | -68.5°C | 0% | 0hPa | 0V | 00:00:00 | 00:00:00 | 00:00:00 | |
| ARGUS2 | 2026-09-03 12:13:36 | 27.80834 | -82.61091 | 256° | 60km/h | 15507m | 4.1m/s | -67.7°C | 0% | 0hPa | 0V | 00:00:00 | 00:00:00 | 00:00:00 | |
| ARGUS2 | 2026-09-03 12:13:16 | 27.80847 | -82.60776 | 267° | 73km/h | 15402m | 4.4m/s | -67.4°C | 0% | 0hPa | 0V | 00:00:00 | 00:00:00 | 00:00:00 | |
| ARGUS2 | 2026-09-03 12:12:55 | 27.80902 | -82.60433 | 258° | 58km/h | 15305m | 3.9m/s | -68.0°C | 0% | 0hPa | 0V | 00:00:00 | 00:00:00 | 00:00:00 | |
| ARGUS2 | 2026-09-03 12:12:35 | 27.81021 | -82.60139 | 233° | 53km/h | 15201m | 5.5m/s | -69.0°C | 0% | 0hPa | 0V | 00:00:00 | 00:00:00 | 00:00:00 | |
| ARGUS2 | 2026-09-03 12:12:14 | 27.81189 | -82.59983 | 186° | 27km/h | 15100m | 4.0m/s | -68.8°C | 0% | 0hPa | 0V | 00:00:00 | 00:00:00 | 00:00:00 | |
| ARGUS2 | 2026-09-03 12:11:54 | 27.81292 | -82.59866 | 236° | 18km/h | 14982m | 4.2m/s | -67.9°C | 0% | 0hPa | 0V | 00:00:00 | 00:00:00 | 00:00:00 | |
| ARGUS2 | 2026-09-03 12:11:32 | 27.81399 | -82.59785 | 236° | 13km/h | 14870m | 6.3m/s | -66.9°C | 0% | 0hPa | 0V | 00:00:00 | 00:00:00 | 00:00:00 | |
| ARGUS2 | 2026-09-03 12:11:12 | 27.81516 | -82.59699 | 220° | 49km/h | 14762m | 4.1m/s | -66.0°C | 0% | 0hPa | 0V | 00:00:00 | 00:00:00 | 00:00:00 | |
| ARGUS2 | 2026-09-03 12:10:52 | 27.81595 | -82.59633 | 2° | 13km/h | 14625m | 6.2m/s | -64.9°C | 0% | 0hPa | 0V | 00:00:00 | 00:00:00 | 00:00:00 | |
| ARGUS2 | 2026-09-03 12:10:31 | 27.81639 | -82.59554 | 233° | 29km/h | 14522m | 5.8m/s | -64.1°C | 0% | 0hPa | 0V | 00:00:00 | 00:00:00 | 00:00:00 | |
| ARGUS2 | 2026-09-03 12:09:30 | 27.81319 | -82.59229 | 323° | 57km/h | 14164m | 10.0m/s | -63.4°C | 0% | 0hPa | 0V | 00:00:00 | 00:00:00 | 00:00:00 | |
| ARGUS2 | 2026-09-03 12:09:10 | 27.81082 | -82.59111 | 345° | 51km/h | 14054m | 4.7m/s | -62.8°C | 0% | 0hPa | 0V | 00:00:00 | 00:00:00 | 00:00:00 | |
| ARGUS2 | 2026-09-03 12:08:49 | 27.80793 | -82.58952 | 326° | 55km/h | 13961m | 2.3m/s | -62.6°C | 0% | 0hPa | 0V | 00:00:00 | 00:00:00 | 00:00:00 | |
| ARGUS2 | 2026-09-03 12:08:28 | 27.80511 | -82.58786 | 334° | 68km/h | 13877m | 4.2m/s | -62.1°C | 0% | 0hPa | 0V | 00:00:00 | 00:00:00 | 00:00:00 | |
| ARGUS2 | 2026-09-03 12:08:08 | 27.80220 | -82.58616 | 325° | 64km/h | 13787m | 2.8m/s | -61.8°C | 0% | 0hPa | 0V | 00:00:00 | 00:00:00 | 00:00:00 | |
| ARGUS2 | 2026-09-03 12:07:48 | 27.79983 | -82.58434 | 319° | 58km/h | 13700m | 4.8m/s | -61.3°C | 0% | 0hPa | 0V | 00:00:00 | 00:00:00 | 00:00:00 | |
| ARGUS2 | 2026-09-03 12:07:27 | 27.79753 | -82.58217 | 313° | 57km/h | 13610m | 4.2m/s | -60.5°C | 0% | 0hPa | 0V | 00:00:00 | 00:00:00 | 00:00:00 | |
| ARGUS2 | 2026-09-03 12:07:06 | 27.79540 | -82.58009 | 333° | 49km/h | 13523m | 4.6m/s | -60.0°C | 0% | 0hPa | 0V | 00:00:00 | 00:00:00 | 00:00:00 | |
| ARGUS2 | 2026-09-03 12:06:46 | 27.79318 | -82.57825 | 323° | 55km/h | 13427m | 3.4m/s | -59.3°C | 0% | 0hPa | 0V | 00:00:00 | 00:00:00 | 00:00:00 | |
| ARGUS2 | 2026-09-03 12:06:25 | 27.79099 | -82.57650 | 318° | 44km/h | 13333m | 2.8m/s | -58.6°C | 0% | 0hPa | 0V | 00:00:00 | 00:00:00 | 00:00:00 | |
| ARGUS2 | 2026-09-03 12:06:04 | 27.78895 | -82.57473 | 339° | 46km/h | 13238m | 4.1m/s | -57.9°C | 0% | 0hPa | 0V | 00:00:00 | 00:00:00 | 00:00:00 | |
| ARGUS2 | 2026-09-03 12:05:44 | 27.78657 | -82.57302 | 331° | 68km/h | 13142m | 4.8m/s | -57.2°C | 0% | 0hPa | 0V | 00:00:00 | 00:00:00 | 00:00:00 | |
| ARGUS2 | 2026-09-03 12:05:23 | 27.78431 | -82.57136 | 337° | 55km/h | 13053m | 3.7m/s | -56.5°C | 0% | 0hPa | 0V | 00:00:00 | 00:00:00 | 00:00:00 | |
| ARGUS2 | 2026-09-03 12:05:03 | 27.78189 | -82.56951 | 325° | 55km/h | 12955m | 5.3m/s | -55.8°C | 0% | 0hPa | 0V | 00:00:00 | 00:00:00 | 00:00:00 | |
| ARGUS2 | 2026-09-03 12:04:42 | 27.77966 | -82.56770 | 317° | 46km/h | 12861m | 4.0m/s | -55.2°C | 0% | 0hPa | 0V | 00:00:00 | 00:00:00 | 00:00:00 | |
| ARGUS2 | 2026-09-03 12:04:22 | 27.77744 | -82.56583 | 319° | 44km/h | 12767m | 4.9m/s | -54.5°C | 0% | 0hPa | 0V | 00:00:00 | 00:00:00 | 00:00:00 | |
| ARGUS2 | 2026-09-03 12:04:01 | 27.77534 | -82.56407 | 314° | 57km/h | 12671m | 5.2m/s | -53.7°C | 0% | 0hPa | 0V | 00:00:00 | 00:00:00 | 00:00:00 | |
| ARGUS2 | 2026-09-03 12:03:41 | 27.77323 | -82.56193 | 304° | 55km/h | 12572m | 4.6m/s | -52.8°C | 0% | 0hPa | 0V | 00:00:00 | 00:00:00 | 00:00:00 | |
| ARGUS2 | 2026-09-03 12:03:21 | 27.77123 | -82.56001 | 313° | 60km/h | 12477m | 4.8m/s | -52.0°C | 0% | 0hPa | 0V | 00:00:00 | 00:00:00 | 00:00:00 | |
| ARGUS2 | 2026-09-03 12:03:00 | 27.76935 | -82.55779 | 307° | 51km/h | 12378m | 3.9m/s | -51.3°C | 0% | 0hPa | 0V | 00:00:00 | 00:00:00 | 00:00:00 | |
| ARGUS2 | 2026-09-03 12:02:39 | 27.76757 | -82.55570 | 313° | 47km/h | 12285m | 5.0m/s | -50.6°C | 0% | 0hPa | 0V | 00:00:00 | 00:00:00 | 00:00:00 | |
| ARGUS2 | 2026-09-03 12:02:19 | 27.76574 | -82.55365 | 308° | 46km/h | 12179m | 5.7m/s | -49.7°C | 0% | 0hPa | 0V | 00:00:00 | 00:00:00 | 00:00:00 | |
| ARGUS2 | 2026-09-03 12:01:58 | 27.76400 | -82.55157 | 310° | 42km/h | 12073m | 4.6m/s | -48.9°C | 0% | 0hPa | 0V | 00:00:00 | 00:00:00 | 00:00:00 | |
| ARGUS2 | 2026-09-03 12:01:38 | 27.76223 | -82.54925 | 327° | 44km/h | 11969m | 4.7m/s | -47.9°C | 0% | 0hPa | 0V | 00:00:00 | 00:00:00 | 00:00:00 | |
| ARGUS2 | 2026-09-03 12:01:17 | 27.76059 | -82.54725 | 314° | 51km/h | 11873m | 5.0m/s | -47.1°C | 0% | 0hPa | 0V | 00:00:00 | 00:00:00 | 00:00:00 | |
| ARGUS2 | 2026-09-03 12:00:57 | 27.75886 | -82.54509 | 315° | 58km/h | 11766m | 4.7m/s | -46.2°C | 0% | 0hPa | 0V | 00:00:00 | 00:00:00 | 00:00:00 | |
| ARGUS2 | 2026-09-03 12:00:36 | 27.75716 | -82.54284 | 310° | 42km/h | 11659m | 4.0m/s | -45.3°C | 0% | 0hPa | 0V | 00:00:00 | 00:00:00 | 00:00:00 | |
| ARGUS2 | 2026-09-03 12:00:15 | 27.75573 | -82.54079 | 299° | 62km/h | 11561m | 5.4m/s | -44.5°C | 0% | 0hPa | 0V | 00:00:00 | 00:00:00 | 00:00:00 | |
| ARGUS2 | 2026-09-03 11:59:54 | 27.75437 | -82.53838 | 311° | 42km/h | 11452m | 4.4m/s | -43.6°C | 0% | 0hPa | 0V | 00:00:00 | 00:00:00 | 00:00:00 | |
| ARGUS2 | 2026-09-03 11:59:34 | 27.75307 | -82.53604 | 298° | 53km/h | 11350m | 4.1m/s | -42.7°C | 0% | 0hPa | 0V | 00:00:00 | 00:00:00 | 00:00:00 | |
| ARGUS2 | 2026-09-03 11:59:14 | 27.75174 | -82.53354 | 301° | 40km/h | 11248m | 5.2m/s | -42.0°C | 0% | 0hPa | 0V | 00:00:00 | 00:00:00 | 00:00:00 | |
| ARGUS2 | 2026-09-03 11:58:53 | 27.75064 | -82.53118 | 295° | 55km/h | 11154m | 6.3m/s | -41.2°C | 0% | 0hPa | 0V | 00:00:00 | 00:00:00 | 00:00:00 | |
| ARGUS2 | 2026-09-03 11:58:33 | 27.74947 | -82.52856 | 297° | 60km/h | 11052m | 4.9m/s | -40.4°C | 0% | 0hPa | 0V | 00:00:00 | 00:00:00 | 00:00:00 | |
| ARGUS2 | 2026-09-03 11:58:12 | 27.74845 | -82.52620 | 305° | 47km/h | 10957m | 4.1m/s | -39.6°C | 0% | 0hPa | 0V | 00:00:00 | 00:00:00 | 00:00:00 | |
| ARGUS2 | 2026-09-03 11:57:52 | 27.74715 | -82.52380 | 289° | 49km/h | 10861m | 4.6m/s | -39.0°C | 0% | 0hPa | 0V | 00:00:00 | 00:00:00 | 00:00:00 | |
| ARGUS2 | 2026-09-03 11:57:31 | 27.74618 | -82.52143 | 299° | 47km/h | 10769m | 4.4m/s | -38.3°C | 0% | 0hPa | 0V | 00:00:00 | 00:00:00 | 00:00:00 | |
| ARGUS2 | 2026-09-03 11:57:11 | 27.74524 | -82.51881 | 305° | 51km/h | 10674m | 4.7m/s | -37.9°C | 0% | 0hPa | 0V | 00:00:00 | 00:00:00 | 00:00:00 | |
| ARGUS2 | 2026-09-03 11:56:51 | 27.74451 | -82.51649 | 306° | 47km/h | 10583m | 4.8m/s | -37.1°C | 0% | 0hPa | 0V | 00:00:00 | 00:00:00 | 00:00:00 | |
| ARGUS2 | 2026-09-03 11:56:30 | 27.74369 | -82.51399 | 305° | 53km/h | 10491m | 4.3m/s | -36.4°C | 0% | 0hPa | 0V | 00:00:00 | 00:00:00 | 00:00:00 | |
| ARGUS2 | 2026-09-03 11:56:09 | 27.74314 | -82.51186 | 290° | 37km/h | 10393m | 4.9m/s | -35.7°C | 0% | 0hPa | 0V | 00:00:00 | 00:00:00 | 00:00:00 | |
| ARGUS2 | 2026-09-03 11:55:49 | 27.74267 | -82.50952 | 277° | 38km/h | 10300m | 5.3m/s | -34.9°C | 0% | 0hPa | 0V | 00:00:00 | 00:00:00 | 00:00:00 | |
| ARGUS2 | 2026-09-03 11:55:28 | 27.74230 | -82.50721 | 269° | 35km/h | 10195m | 4.2m/s | -34.2°C | 0% | 0hPa | 0V | 00:00:00 | 00:00:00 | 00:00:00 | |
| ARGUS2 | 2026-09-03 11:55:07 | 27.74218 | -82.50513 | 280° | 38km/h | 10099m | 3.6m/s | -33.4°C | 0% | 0hPa | 0V | 00:00:00 | 00:00:00 | 00:00:00 | |
| ARGUS2 | 2026-09-03 11:54:47 | 27.74198 | -82.50288 | 241° | 27km/h | 10004m | 4.6m/s | -32.7°C | 0% | 0hPa | 0V | 00:00:00 | 00:00:00 | 00:00:00 | |
| ARGUS2 | 2026-09-03 11:54:27 | 27.74197 | -82.50085 | 278° | 46km/h | 9910m | 5.6m/s | -32.0°C | 0% | 0hPa | 0V | 00:00:00 | 00:00:00 | 00:00:00 | |
| ARGUS2 | 2026-09-03 11:54:05 | 27.74187 | -82.49885 | 241° | 35km/h | 9812m | 4.6m/s | -31.3°C | 0% | 0hPa | 0V | 00:00:00 | 00:00:00 | 00:00:00 | |
| ARGUS2 | 2026-09-03 11:53:25 | 27.74200 | -82.49496 | 289° | 38km/h | 9621m | 4.2m/s | -29.9°C | 0% | 0hPa | 0V | 00:00:00 | 00:00:00 | 00:00:00 | |
| ARGUS2 | 2026-09-03 11:53:04 | 27.74216 | -82.49331 | 249° | 38km/h | 9531m | 4.5m/s | -29.2°C | 0% | 0hPa | 0V | 00:00:00 | 00:00:00 | 00:00:00 | |
| ARGUS2 | 2026-09-03 11:52:44 | 27.74219 | -82.49156 | 262° | 38km/h | 9435m | 3.5m/s | -28.6°C | 0% | 0hPa | 0V | 00:00:00 | 00:00:00 | 00:00:00 | |
| ARGUS2 | 2026-09-03 11:52:23 | 27.74230 | -82.49002 | 243° | 35km/h | 9344m | 4.4m/s | -27.9°C | 0% | 0hPa | 0V | 00:00:00 | 00:00:00 | 00:00:00 | |
| ARGUS2 | 2026-09-03 11:52:03 | 27.74242 | -82.48851 | 276° | 24km/h | 9251m | 4.6m/s | -27.1°C | 0% | 0hPa | 0V | 00:00:00 | 00:00:00 | 00:00:00 | |
| ARGUS2 | 2026-09-03 11:51:41 | 27.74227 | -82.48712 | 261° | 29km/h | 9145m | 4.1m/s | -26.2°C | 0% | 0hPa | 0V | 00:00:00 | 00:00:00 | 00:00:00 | |
| ARGUS2 | 2026-09-03 11:51:17 | 27.74203 | -82.48543 | 297° | 31km/h | 9007m | 4.6m/s | -25.0°C | 0% | 0hPa | 0V | 00:00:00 | 00:00:00 | 00:00:00 | |
| ARGUS2 | 2026-09-03 11:50:55 | 27.74186 | -82.48402 | 305° | 22km/h | 8898m | 4.2m/s | -24.3°C | 0% | 0hPa | 0V | 00:00:00 | 00:00:00 | 00:00:00 | |
| ARGUS2 | 2026-09-03 11:50:34 | 27.74170 | -82.48277 | 285° | 26km/h | 8795m | 4.6m/s | -23.6°C | 0% | 0hPa | 0V | 00:00:00 | 00:00:00 | 00:00:00 | |
| ARGUS2 | 2026-09-03 11:50:14 | 27.74126 | -82.48164 | 288° | 27km/h | 8697m | 5.3m/s | -22.8°C | 0% | 0hPa | 0V | 00:00:00 | 00:00:00 | 00:00:00 | |
| ARGUS2 | 2026-09-03 11:49:46 | 27.74062 | -82.48024 | 279° | 15km/h | 8577m | 3.1m/s | -22.2°C | 0% | 0hPa | 0V | 00:00:00 | 00:00:00 | 00:00:00 | |
| ARGUS2 | 2026-09-03 11:49:26 | 27.74010 | -82.47908 | 279° | 16km/h | 8472m | 6.4m/s | -21.6°C | 0% | 0hPa | 0V | 00:00:00 | 00:00:00 | 00:00:00 | |
| ARGUS2 | 2026-09-03 11:49:05 | 27.73961 | -82.47806 | 300° | 24km/h | 8370m | 5.3m/s | -20.8°C | 0% | 0hPa | 0V | 00:00:00 | 00:00:00 | 00:00:00 | |
| ARGUS2 | 2026-09-03 11:48:45 | 27.73918 | -82.47682 | 271° | 24km/h | 8275m | 5.2m/s | -20.3°C | 0% | 0hPa | 0V | 00:00:00 | 00:00:00 | 00:00:00 | |
| ARGUS2 | 2026-09-03 11:48:24 | 27.73871 | -82.47581 | 277° | 11km/h | 8175m | 5.7m/s | -19.6°C | 0% | 0hPa | 0V | 00:00:00 | 00:00:00 | 00:00:00 | |
| ARGUS2 | 2026-09-03 11:47:07 | 27.73593 | -82.47195 | 302° | 31km/h | 7805m | 4.9m/s | -16.1°C | 0% | 0hPa | 0V | 00:00:00 | 00:00:00 | 00:00:00 | |
| ARGUS2 | 2026-09-03 11:46:38 | 27.73513 | -82.47020 | 304° | 35km/h | 7666m | 6.4m/s | -15.1°C | 0% | 0hPa | 0V | 00:00:00 | 00:00:00 | 00:00:00 | |
| ARGUS2 | 2026-09-03 11:46:16 | 27.73473 | -82.46884 | 279° | 24km/h | 7567m | 4.2m/s | -14.3°C | 0% | 0hPa | 0V | 00:00:00 | 00:00:00 | 00:00:00 | |
| ARGUS2 | 2026-09-03 11:45:31 | 27.73418 | -82.46580 | 300° | 24km/h | 7368m | 4.4m/s | -13.6°C | 0% | 0hPa | 0V | 00:00:00 | 00:00:00 | 00:00:00 | |
| ARGUS2 | 2026-09-03 11:45:05 | 27.73363 | -82.46407 | 283° | 31km/h | 7262m | 5.0m/s | -13.4°C | 0% | 0hPa | 0V | 00:00:00 | 00:00:00 | 00:00:00 | |
| ARGUS2 | 2026-09-03 11:44:03 | 27.73178 | -82.46078 | 286° | 18km/h | 6960m | 3.7m/s | -11.5°C | 0% | 0hPa | 0V | 00:00:00 | 00:00:00 | 00:00:00 | |
| ARGUS2 | 2026-09-03 11:43:42 | 27.73122 | -82.46006 | 332° | 27km/h | 6879m | 6.0m/s | -10.8°C | 0% | 0hPa | 0V | 00:00:00 | 00:00:00 | 00:00:00 | |
| ARGUS2 | 2026-09-03 11:43:16 | 27.73046 | -82.45915 | 324° | 11km/h | 6756m | 4.3m/s | -9.8°C | 0% | 0hPa | 0V | 00:00:00 | 00:00:00 | 00:00:00 | |
| ARGUS2 | 2026-09-03 11:42:56 | 27.72986 | -82.45829 | 320° | 24km/h | 6664m | 3.4m/s | -9.2°C | 0% | 0hPa | 0V | 00:00:00 | 00:00:00 | 00:00:00 | |
| ARGUS2 | 2026-09-03 11:42:35 | 27.72925 | -82.45737 | 295° | 13km/h | 6573m | 2.4m/s | -8.6°C | 0% | 0hPa | 0V | 00:00:00 | 00:00:00 | 00:00:00 | |
| ARGUS2 | 2026-09-03 11:42:12 | 27.72871 | -82.45603 | 289° | 24km/h | 6456m | 6.2m/s | 0°C | 0% | 0hPa | 0V | 00:00:00 | 00:00:00 | 00:00:00 | |
| ARGUS2 | 2026-09-03 11:40:32 | 27.72681 | -82.44902 | 305° | 18km/h | 5953m | 4.4m/s | -5.2°C | 0% | 0hPa | 0V | 00:00:00 | 00:00:00 | 00:00:00 | |
| ARGUS2 | 2026-09-03 11:40:10 | 27.72658 | -82.44737 | 267° | 38km/h | 5842m | 4.2m/s | -4.5°C | 0% | 0hPa | 0V | 00:00:00 | 00:00:00 | 00:00:00 | |
| ARGUS2 | 2026-09-03 11:38:53 | 27.72627 | -82.44113 | 283° | 29km/h | 5516m | 4.4m/s | -3.9°C | 0% | 0hPa | 0V | 00:00:00 | 00:00:00 | 00:00:00 | |
| ARGUS2 | 2026-09-03 11:38:34 | 27.72601 | -82.43937 | 278° | 24km/h | 5417m | 5.4m/s | -3.2°C | 0% | 0hPa | 0V | 00:00:00 | 00:00:00 | 00:00:00 | |
| ARGUS2 | 2026-09-03 11:38:12 | 27.72563 | -82.43786 | 292° | 24km/h | 5334m | 4.5m/s | -2.6°C | 0% | 0hPa | 0V | 00:00:00 | 00:00:00 | 00:00:00 | |
| ARGUS2 | 2026-09-03 11:37:52 | 27.72536 | -82.43616 | 282° | 31km/h | 5242m | 4.5m/s | -1.8°C | 0% | 0hPa | 0V | 00:00:00 | 00:00:00 | 00:00:00 | |
| ARGUS2 | 2026-09-03 11:37:31 | 27.72495 | -82.43468 | 270° | 26km/h | 5144m | 4.7m/s | -1.5°C | 0% | 0hPa | 0V | 00:00:00 | 00:00:00 | 00:00:00 | |
| ARGUS2 | 2026-09-03 11:37:10 | 27.72472 | -82.43333 | 271° | 20km/h | 5057m | 4.7m/s | -0.9°C | 0% | 0hPa | 0V | 00:00:00 | 00:00:00 | 00:00:00 | |
| ARGUS2 | 2026-09-03 11:36:49 | 27.72455 | -82.43186 | 299° | 15km/h | 4966m | 4.8m/s | -0.3°C | 0% | 0hPa | 0V | 00:00:00 | 00:00:00 | 00:00:00 | |
| ARGUS2 | 2026-09-03 11:36:29 | 27.72415 | -82.43053 | 302° | 22km/h | 4880m | 3.9m/s | 0.2°C | 0% | 0hPa | 0V | 00:00:00 | 00:00:00 | 00:00:00 | |
| ARGUS2 | 2026-09-03 11:36:08 | 27.72347 | -82.42928 | 312° | 24km/h | 4778m | 3.8m/s | 0.9°C | 0% | 0hPa | 0V | 00:00:00 | 00:00:00 | 00:00:00 | |
| ARGUS2 | 2026-09-03 11:35:47 | 27.72299 | -82.42808 | 295° | 24km/h | 4691m | 3.4m/s | 1.4°C | 0% | 0hPa | 0V | 00:00:00 | 00:00:00 | 00:00:00 | |
| ARGUS2 | 2026-09-03 11:34:45 | 27.72249 | -82.42455 | 311° | 15km/h | 4396m | 5.4m/s | 2.9°C | 0% | 0hPa | 0V | 00:00:00 | 00:00:00 | 00:00:00 | |
| ARGUS2 | 2026-09-03 11:34:03 | 27.72199 | -82.42294 | 276° | 22km/h | 4212m | 6.3m/s | 4.1°C | 0% | 0hPa | 0V | 00:00:00 | 00:00:00 | 00:00:00 | |
| ARGUS2 | 2026-09-03 11:33:43 | 27.72152 | -82.42231 | 298° | 20km/h | 4120m | 5.1m/s | 5.0°C | 0% | 0hPa | 0V | 00:00:00 | 00:00:00 | 00:00:00 | |
| ARGUS2 | 2026-09-03 11:33:23 | 27.72147 | -82.42167 | 276° | 11km/h | 4035m | 3.1m/s | 5.5°C | 0% | 0hPa | 0V | 00:00:00 | 00:00:00 | 00:00:00 | |
| ARGUS2 | 2026-09-03 11:33:02 | 27.72137 | -82.42073 | 254° | 24km/h | 3951m | 6.6m/s | 5.9°C | 0% | 0hPa | 0V | 00:00:00 | 00:00:00 | 00:00:00 | |
| ARGUS2 | 2026-09-03 11:32:42 | 27.72120 | -82.42007 | 322° | 20km/h | 3834m | 3.8m/s | 6.7°C | 0% | 0hPa | 0V | 00:00:00 | 00:00:00 | 00:00:00 | |
| ARGUS2 | 2026-09-03 11:32:21 | 27.72111 | -82.41951 | 285° | 22km/h | 3732m | 4.2m/s | 7.2°C | 0% | 0hPa | 0V | 00:00:00 | 00:00:00 | 00:00:00 | |
| ARGUS2 | 2026-09-03 11:32:01 | 27.72111 | -82.41916 | 29° | 13km/h | 3630m | 3.0m/s | 7.7°C | 0% | 0hPa | 0V | 00:00:00 | 00:00:00 | 00:00:00 | |
| ARGUS2 | 2026-09-03 11:31:40 | 27.72083 | -82.41881 | 273° | 4km/h | 3528m | 6.6m/s | 8.2°C | 0% | 0hPa | 0V | 00:00:00 | 00:00:00 | 00:00:00 | |
| ARGUS2 | 2026-09-03 11:28:33 | 27.71699 | -82.41292 | 355° | 20km/h | 2556m | 4.7m/s | 13.6°C | 0% | 0hPa | 0V | 00:00:00 | 00:00:00 | 00:00:00 | |
| ARGUS2 | 2026-09-03 11:28:12 | 27.71631 | -82.41226 | 295° | 7km/h | 2446m | 7.4m/s | 13.1°C | 0% | 0hPa | 0V | 00:00:00 | 00:00:00 | 00:00:00 | |
| ARGUS2 | 2026-09-03 11:27:52 | 27.71609 | -82.41177 | 247° | 5km/h | 2335m | 5.5m/s | 13.9°C | 0% | 0hPa | 0V | 00:00:00 | 00:00:00 | 00:00:00 | |
| ARGUS2 | 2026-09-03 11:27:31 | 27.71567 | -82.41162 | 344° | 26km/h | 2216m | 5.0m/s | 14.6°C | 0% | 0hPa | 0V | 00:00:00 | 00:00:00 | 00:00:00 | |
| ARGUS2 | 2026-09-03 11:27:11 | 27.71521 | -82.41157 | 42° | 13km/h | 2103m | 5.1m/s | 15.0°C | 0% | 0hPa | 0V | 00:00:00 | 00:00:00 | 00:00:00 | |
| ARGUS2 | 2026-09-03 11:26:51 | 27.71479 | -82.41134 | 262° | 11km/h | 1992m | 6.1m/s | 15.8°C | 0% | 0hPa | 0V | 00:00:00 | 00:00:00 | 00:00:00 | |
| ARGUS2 | 2026-09-03 11:26:30 | 27.71444 | -82.41085 | 293° | 24km/h | 1880m | 6.0m/s | 16.4°C | 0% | 0hPa | 0V | 00:00:00 | 00:00:00 | 00:00:00 | |
| ARGUS2 | 2026-09-03 11:26:08 | 27.71430 | -82.41035 | 264° | 15km/h | 1755m | 4.8m/s | 16.9°C | 0% | 0hPa | 0V | 00:00:00 | 00:00:00 | 00:00:00 | |
| ARGUS2 | 2026-09-03 11:25:46 | 27.71386 | -82.40990 | 72° | 11km/h | 1642m | -117.2m/s | 17.4°C | 0% | 0hPa | 0V | 00:00:00 | 00:00:00 | 00:00:00 | |
| ARGUS2 | 2026-09-03 11:25:11 | 27.71292 | -82.40898 | 257° | 5km/h | 1456m | 4.2m/s | 18.2°C | 0% | 0hPa | 0V | 00:00:00 | 00:00:00 | 00:00:00 | |
| ARGUS2 | 2026-09-03 11:24:46 | 27.71223 | -82.40850 | 317° | 18km/h | 1331m | 5.4m/s | 0°C | 0% | 0hPa | 0V | 00:00:00 | 00:00:00 | 00:00:00 |